Rodez, France

7:11 PM CEST on September 19, 2014 (GMT +0200)
Marcillac | Change Station
CLOSE
Current Station
Airport
Location: Rodez,
Elevation: 1900 ft
Nearby Weather Stations

Elev 1900 ft 44.41 °N, 2.48 °E | Updated 41 minutes ago

Clear
Clear
73 °F
Feels Like 73 °F
N
13
Wind Variable Wind from SSE

Today
High -- | Low -- °F
--% Chance of Precip.
Yesterday
High -- | Low -- °F
Precip. -- in
7:33 AM 7:53 PM
Waning Crescent, 18% visible
Pressure 29.92 in
Visibility 6.2 miles
Clouds
Dew Point 61 °F
Humidity 65%
Rainfall 0.00 in
Snow Depth Not available.
UV Not available.
Pollen Not available.
Air Quality Not available.
Flu Activity Not available.
METAR LFCR 191630Z AUTO 15011KT 9999 NSC 23/16 Q1013

More Conditions Fewer Conditions

Pressure 29.92 in
Visibility 6.2 miles
Clouds
Dew Point 61 °F
Humidity 65%
Rainfall 0.00 in
Snow Depth Not available.
UV Not available.
Pollen Not available.
Air Quality Not available.
Flu Activity Not available.
METAR LFCR 191630Z AUTO 15011KT 9999 NSC 23/16 Q1013

More Conditions Fewer Conditions

10-Day Weather Forecast

Almanac

Astronomy

Sep. 19, 2014 Rise Set
Actual Time 7:33 AM CEST 7:53 PM CEST
Civil Twilight 7:04 AM CEST 8:22 PM CEST
Nautical Twilight 6:30 AM CEST 8:56 PM CEST
Astronomical Twilight 5:54 AM CEST 9:31 PM CEST
Moon 2:56 AM CEST 5:20 PM CEST
Length of Visible Light 13h 18m
Length of Day
12h 20m
Tomorrow will be 3m 3s shorter.
Waning Crescent, 18% of the Moon is Illuminated
Today
Waning Crescent
Sep 24
New
Oct 1
First Quarter
Oct 8
Full
Oct 15
Last Quarter

Today's Extremes

Country Highs Country Lows

Community

WunderPhotos

Upload Photos

1,754,655 photos uploaded!

Nearby

Snow Depth

Not available.

Earthquake Activity

City Distance Mag. Time & Date
No recent earthquake activity has been reported nearby.
Minimum magnitude displayed is 2.5.

Coastal Water Temperatures

Place Temperature
No Stations Reporting

Nearby Weather Stations